Disclaimer

Please do not use the information listed here in-flight or in-navigation, as they are not provided to us by the airports but are provided by volunteers, so they might be outdated.

Search


Regions


Airport information page

Radio informations:
Tower (TWR) - 118.6 MHz
GOTEBORG APP - 124.675 MHz
Ground (GND) - 121.9 MHz
Automatic Terminal Information Service (ATIS) - 118.375 MHz

Airport informations:
Latitude: 57° 39' 46.21" N
Longitude: 012° 16' 47.35" E
Elevation: 506 feet - 154 meters
Operating hours: 24 hour operations
Operating agency: Civil government, landing fees and diplomatic clearance may be required
Timezone: UTC+1(+2DT) - Last Sunday in March to last Sunday in October
Fuel: Jet A1, without icing nhibitor.

Runway information:
03/21 - 10823 x 148 feet< - >3299 x 45 meters

Recent METARs:
ESGG 211820Z 04007KT 9999 BKN017 01/M01 Q1031 R03/19//95
ESGG 211850Z 05008KT 9999 BKN016 01/M01 Q1031 R03/19//95
ESGG 211920Z 05007KT 9999 BKN014 OVC018 01/M01 Q1031 R03/19//95

Airport on the map: